This is the latest recevied weather packets stored in our database for station/object WC4PEM-7. If no packets are shown the sender has not sent any weather packets the latest 10 day(s).
| Time | Temp. | Humidity | Pressure | Rain* | Wind** | Luminosity | Snow |
|---|---|---|---|---|---|---|---|
| 1777139058 | 30° C | 51% | 1011.3 hPa | 0 mm | - | - | - |
| 1777138758 | 30° C | 51% | 1011.3 hPa | 0 mm | - | - | - |
| 1777138458 | 30° C | 50% | 1011.3 hPa | 0 mm | - | - | - |
| 1777138158 | 30° C | 50% | 1011.4 hPa | 0 mm | - | - | - |
| 1777137858 | 30.56° C | 49% | 1011.4 hPa | 0 mm | - | - | - |
| 1777137807 | 30° C | 51% | 1011.4 hPa | 0 mm | - | - | - |
| 1777137558 | 30° C | 49% | 1011.4 hPa | 0 mm | - | - | - |
| 1777137258 | 30° C | 51% | 1011.4 hPa | 0 mm | - | - | - |
| 1777137139 | 30° C | 50% | 1011.5 hPa | 0 mm | - | - | - |
| 1777136958 | 30° C | 50% | 1011.5 hPa | 0 mm | - | - | - |
| 1777136658 | 30° C | 53% | 1011.4 hPa | 0 mm | - | - | - |
| 1777136358 | 28.89° C | 54% | 1011.3 hPa | 0 mm | - | - | - |
| 1777136058 | 29.44° C | 52% | 1011.4 hPa | 0 mm | - | - | - |
| 1777135758 | 30° C | 51% | 1011.5 hPa | 0 mm | - | - | - |
| 1777135458 | 29.44° C | 53% | 1011.4 hPa | 0 mm | - | - | - |
| 1777135159 | 29.44° C | 55% | 1011.5 hPa | 0 mm | - | - | - |
| 1777134945 | 28.89° C | 55% | 1011.3 hPa | 0 mm | - | - | - |
| 1777134858 | 28.89° C | 55% | 1011.3 hPa | 0 mm | - | - | - |
| 1777134732 | 28.89° C | 54% | 1011.4 hPa | 0 mm | - | - | - |
| 1777134559 | 28.89° C | 54% | 1011.4 hPa | 0 mm | - | - | - |
| 1777134258 | 28.89° C | 54% | 1011.4 hPa | 0 mm | - | - | - |
| 1777133958 | 29.44° C | 54% | 1011.4 hPa | 0 mm | - | - | - |
| 1777133719 | 28.89° C | 56% | 1011.4 hPa | 0 mm | - | - | - |
| 1777133659 | 28.89° C | 56% | 1011.4 hPa | 0 mm | - | - | - |
| 1777133399 | 28.33° C | 57% | 1011.9 hPa | 0 mm | - | - | - |
* Rain latest hour (hover to see other rain measurements)
** Current wind speed in m/s (hover to see current wind gust speed)